createdAt,value
2018-07-10T00:00:36.630Z,88.53
2018-07-10T00:01:45.488Z,87.95
2018-07-10T00:02:54.622Z,87.57
2018-07-10T00:04:03.483Z,88.34
2018-07-10T00:05:12.343Z,87.95
2018-07-10T00:06:21.201Z,87.48
2018-07-10T00:07:30.334Z,88.15
2018-07-10T00:08:39.473Z,87.48
2018-07-10T00:09:48.387Z,87.57
2018-07-10T00:10:57.247Z,87.86
2018-07-10T00:12:06.387Z,88.05
2018-07-10T00:13:15.244Z,87.66
2018-07-10T00:14:24.252Z,87.82
2018-07-10T00:15:33.113Z,87.66
2018-07-10T00:16:42.253Z,87.57
2018-07-10T00:17:51.112Z,87.72
2018-07-10T00:19:00.253Z,88.29
2018-07-10T00:20:09.262Z,87.91
2018-07-10T00:21:18.398Z,87.53
2018-07-10T00:22:27.262Z,87.91
2018-07-10T00:23:36.121Z,87.82
2018-07-10T00:24:44.977Z,87.82
2018-07-10T00:25:54.470Z,87.48
2018-07-10T00:27:03.330Z,87.57
2018-07-10T00:28:12.190Z,87.62
2018-07-10T00:29:21.049Z,87.43
2018-07-10T00:30:29.909Z,87.24
2018-07-10T00:31:39.194Z,86.76
2018-07-10T00:32:48.054Z,86
2018-07-10T00:33:56.910Z,85.71
2018-07-10T00:35:05.770Z,86.1
2018-07-10T00:36:14.630Z,85.33
2018-07-10T00:37:23.644Z,85.05
2018-07-10T00:38:32.504Z,84.95
2018-07-10T00:39:41.362Z,84.38
2018-07-10T00:40:50.223Z,84.19
2018-07-10T00:41:59.080Z,83.7
2018-07-10T00:43:08.221Z,83.9
2018-07-10T00:44:17.362Z,83.23
2018-07-10T00:45:26.217Z,82.94
2018-07-10T00:46:35.074Z,83.23
2018-07-10T00:47:44.217Z,83.04
2018-07-10T00:48:53.349Z,82.37
2018-07-10T00:50:02.493Z,82.46
2018-07-10T00:51:11.351Z,82.65
2018-07-10T00:52:20.920Z,82.18
2018-07-10T00:53:29.786Z,82.37
2018-07-10T00:54:38.920Z,82.37
2018-07-10T00:55:47.777Z,82.18
2018-07-10T00:56:56.633Z,82.46
2018-07-10T00:58:05.492Z,81.6
2018-07-10T00:59:14.350Z,82.04
2018-07-10T01:00:23.212Z,81.7
2018-07-10T01:01:32.347Z,81.7
2018-07-10T01:02:41.480Z,81.13
2018-07-10T01:03:50.338Z,81.56
2018-07-10T01:04:59.194Z,81.27
2018-07-10T01:06:08.202Z,81.09
2018-07-10T01:07:17.061Z,80.8
2018-07-10T01:08:25.920Z,80.61
2018-07-10T01:09:34.777Z,79.94
2018-07-10T01:10:43.635Z,79.88
2018-07-10T01:11:52.921Z,80.32
2018-07-10T01:13:02.338Z,80.36
2018-07-10T01:14:11.198Z,79.46
2018-07-10T01:15:20.053Z,79.27
2018-07-10T01:16:28.913Z,78.89
2018-07-10T01:17:37.874Z,79.17
2018-07-10T01:18:46.783Z,78.93
2018-07-10T01:19:55.895Z,79.02
2018-07-10T01:21:04.754Z,78.74
2018-07-10T01:22:13.614Z,78.99
2018-07-10T01:23:22.622Z,79.12
2018-07-10T01:24:31.755Z,78.6
2018-07-10T01:25:40.892Z,78.83
2018-07-10T01:26:50.035Z,78.6
2018-07-10T01:27:58.895Z,78.7
2018-07-10T01:29:07.852Z,78.79
2018-07-10T01:30:16.711Z,78.41
2018-07-10T01:31:25.574Z,77.65
2018-07-10T01:32:34.423Z,78.51
2018-07-10T01:33:43.338Z,78.26
2018-07-10T01:34:53.251Z,78.22
2018-07-10T01:36:02.109Z,78.13
2018-07-10T01:37:10.971Z,77.87
2018-07-10T01:38:19.840Z,77.78
2018-07-10T01:39:28.688Z,77.84
2018-07-10T01:40:37.821Z,77.69
2018-07-10T01:41:46.683Z,77.5
2018-07-10T01:42:55.818Z,77.74
2018-07-10T01:44:04.676Z,77.65
2018-07-10T01:45:13.536Z,77.08
2018-07-10T01:46:22.748Z,77.11
2018-07-10T01:47:31.606Z,76.5
2018-07-10T01:48:40.466Z,75.45
2018-07-10T01:49:49.602Z,74.59
2018-07-10T01:50:58.463Z,74.49
2018-07-10T01:52:07.318Z,74.21
2018-07-10T01:53:16.178Z,72.58
2018-07-10T01:54:25.041Z,72.11
2018-07-10T01:55:33.898Z,72.01
2018-07-10T01:56:42.907Z,70.58
2018-07-10T01:57:52.055Z,69.15
2018-07-10T01:59:00.915Z,67.33
2018-07-10T02:00:10.055Z,65.14
2018-07-10T02:01:18.914Z,64.85
2018-07-10T02:02:27.776Z,65.14
2018-07-10T02:03:37.067Z,64.28
2018-07-10T02:04:45.922Z,64.28
2018-07-10T02:05:54.785Z,63.99
2018-07-10T02:07:04.200Z,63.13
2018-07-10T02:08:13.058Z,61.03
2018-07-10T02:09:21.918Z,58.93
2018-07-10T02:10:31.050Z,59.88
2018-07-10T02:11:39.910Z,59.59
2018-07-10T02:12:49.046Z,58.93
2018-07-10T02:13:57.924Z,59.22
2018-07-10T02:15:07.496Z,58.64
2018-07-10T02:16:16.354Z,58.36
2018-07-10T02:17:25.217Z,58.36
2018-07-10T02:18:34.383Z,58.93
2018-07-10T02:19:43.515Z,58.83
2018-07-10T02:20:52.372Z,59.22
2018-07-10T02:22:01.242Z,58.36
2018-07-10T02:23:10.102Z,58.36
2018-07-10T02:24:19.238Z,58.26
2018-07-10T02:25:28.095Z,58.26
2018-07-10T02:26:37.105Z,58.83
2018-07-10T02:27:45.962Z,59.22
2018-07-10T02:28:55.093Z,58.45
2018-07-10T02:30:03.952Z,58.07
2018-07-10T02:31:13.095Z,57.78
2018-07-10T02:32:22.055Z,57.46
2018-07-10T02:33:30.917Z,57.85
2018-07-10T02:34:40.330Z,57.56
2018-07-10T02:35:49.467Z,56.25
2018-07-10T02:36:58.877Z,56.23
2018-07-10T02:38:07.898Z,55.18
2018-07-10T02:39:17.031Z,55.27
2018-07-10T02:40:25.890Z,55.36
2018-07-10T02:41:35.044Z,55.49
2018-07-10T02:42:44.187Z,55.49
2018-07-10T02:43:54.310Z,55.87
2018-07-10T02:45:04.004Z,55.4
2018-07-10T02:46:12.863Z,54.91
2018-07-10T02:47:21.730Z,55.27
2018-07-10T02:48:31.150Z,55.77
2018-07-10T02:49:40.442Z,55.68
2018-07-10T02:50:49.579Z,55.49
2018-07-10T02:51:58.706Z,55.49
2018-07-10T02:53:07.570Z,55.11
2018-07-10T02:54:17.256Z,54.6
2018-07-10T02:55:26.119Z,54.7
2018-07-10T02:56:35.805Z,54.03
2018-07-10T02:57:44.662Z,54.32
2018-07-10T02:58:53.804Z,54.34
2018-07-10T03:00:03.212Z,53.58
2018-07-10T03:01:12.352Z,53.2
2018-07-10T03:02:21.490Z,50.78
2018-07-10T03:03:30.348Z,48.97
2018-07-10T03:04:39.483Z,47.44
2018-07-10T03:05:48.349Z,46.01
2018-07-10T03:06:57.582Z,45.82
2018-07-10T03:08:06.447Z,43.33
2018-07-10T03:09:15.860Z,42.29
2018-07-10T03:10:25.269Z,42.48
2018-07-10T03:11:34.684Z,41.81
2018-07-10T03:12:43.962Z,40.66
2018-07-10T03:13:53.372Z,40.57
2018-07-10T03:15:02.515Z,40.19
2018-07-10T03:16:11.645Z,37.71
2018-07-10T03:17:20.503Z,36.66
2018-07-10T03:18:29.521Z,37.04
2018-07-10T03:19:38.657Z,36.27
2018-07-10T03:20:47.518Z,36.18
2018-07-10T03:21:56.651Z,34.84
2018-07-10T03:23:05.789Z,33.5
2018-07-10T03:24:14.646Z,32.74
2018-07-10T03:25:23.786Z,32.55
2018-07-10T03:26:32.644Z,31.88
2018-07-10T03:27:41.794Z,31.31
2018-07-10T03:28:50.653Z,31.4
2018-07-10T03:29:59.508Z,31.6
2018-07-10T03:31:09.240Z,31.4
2018-07-10T03:32:18.375Z,31.12
2018-07-10T03:33:27.232Z,30.45
2018-07-10T03:34:36.088Z,30.64
2018-07-10T03:35:44.956Z,30.83
2018-07-10T03:36:54.100Z,30.74
2018-07-10T03:38:02.946Z,31.12
2018-07-10T03:39:11.803Z,30.64
2018-07-10T03:40:20.662Z,30.26
2018-07-10T03:41:29.522Z,30.07
2018-07-10T03:42:38.660Z,29.97
2018-07-10T03:43:47.518Z,29.49
2018-07-10T03:44:56.376Z,29.59
2018-07-10T03:46:05.242Z,29.78
2018-07-10T03:47:14.367Z,30.55
2018-07-10T03:48:23.228Z,30.55
2018-07-10T03:49:32.363Z,30.16
2018-07-10T03:50:41.220Z,29.69
2018-07-10T03:51:50.079Z,29.4
2018-07-10T03:52:59.085Z,28.64
2018-07-10T03:54:07.944Z,28.44
2018-07-10T03:55:17.081Z,28.06
2018-07-10T03:56:25.942Z,28.06
2018-07-10T03:57:34.800Z,28.44
2018-07-10T03:58:43.657Z,28.54
2018-07-10T03:59:52.517Z,27.87
2018-07-10T04:01:01.377Z,27.78
2018-07-10T04:02:10.235Z,27.2
2018-07-10T04:03:19.096Z,26.44
2018-07-10T04:04:27.956Z,26.34
2018-07-10T04:05:36.813Z,26.06
2018-07-10T04:06:45.672Z,26.06
2018-07-10T04:07:54.530Z,25.96
2018-07-10T04:09:03.396Z,25.58
2018-07-10T04:10:12.252Z,24.91
2018-07-10T04:11:21.387Z,25.29
2018-07-10T04:12:30.244Z,25.29
2018-07-10T04:13:39.101Z,25.2
2018-07-10T04:14:47.959Z,24.72
2018-07-10T04:15:57.092Z,25.49
2018-07-10T04:17:05.951Z,25.1
2018-07-10T04:18:15.092Z,24.91
2018-07-10T04:19:23.952Z,24.63
2018-07-10T04:20:33.089Z,24.15
2018-07-10T04:21:42.094Z,23.58
2018-07-10T04:22:50.950Z,23.58
2018-07-10T04:23:59.809Z,23.67
2018-07-10T04:25:08.663Z,23.67
2018-07-10T04:26:17.524Z,23.58
2018-07-10T04:27:26.531Z,23.67
2018-07-10T04:28:35.385Z,23.77
2018-07-10T04:29:44.242Z,23.48
2018-07-10T04:30:53.381Z,23.1
2018-07-10T04:32:02.514Z,22.72
2018-07-10T04:33:11.370Z,22.43
2018-07-10T04:34:20.229Z,22.33
2018-07-10T04:35:29.089Z,22.72
2018-07-10T04:36:37.945Z,22.53
2018-07-10T04:37:46.800Z,22.33
2018-07-10T04:38:55.758Z,22.43
2018-07-10T04:40:04.615Z,21.77
2018-07-10T04:41:13.472Z,21.48
2018-07-10T04:42:22.375Z,21.38
2018-07-10T04:43:31.559Z,21.28
2018-07-10T04:44:40.764Z,21.09
2018-07-10T04:45:49.911Z,20.9
2018-07-10T04:46:58.767Z,21.28
2018-07-10T04:48:07.627Z,20.62
2018-07-10T04:49:16.544Z,20.43
2018-07-10T04:50:25.823Z,20.52
2018-07-10T04:51:34.685Z,20.43
2018-07-10T04:52:43.820Z,20.15
2018-07-10T04:53:52.692Z,20.04
2018-07-10T04:55:01.549Z,20.14
2018-07-10T04:56:10.763Z,20.04
2018-07-10T04:57:19.622Z,20.23
2018-07-10T04:58:28.481Z,19.95
2018-07-10T04:59:37.340Z,20.25
2018-07-10T05:00:46.192Z,20.23
2018-07-10T05:01:55.154Z,20.14
2018-07-10T05:03:04.011Z,19.66
2018-07-10T05:04:12.869Z,19.86
2018-07-10T05:05:22.005Z,20.15
2018-07-10T05:06:30.868Z,20.15
2018-07-10T05:07:39.723Z,20.15
2018-07-10T05:08:48.582Z,19.77
2018-07-10T05:09:57.439Z,19.77
2018-07-10T05:11:06.862Z,19.67
2018-07-10T05:12:16.007Z,20.43
2018-07-10T05:13:25.412Z,20.15
2018-07-10T05:14:34.274Z,19.96
2018-07-10T05:15:43.132Z,19.77
2018-07-10T05:16:51.996Z,19.48
2018-07-10T05:18:00.848Z,19.77
2018-07-10T05:19:10.056Z,19.67
2018-07-10T05:20:18.915Z,19.38
2018-07-10T05:21:27.774Z,19.18
2018-07-10T05:22:36.634Z,19.29
2018-07-10T05:23:45.491Z,19.1
2018-07-10T05:24:54.352Z,18.72
2018-07-10T05:26:03.207Z,18.43
2018-07-10T05:27:12.067Z,18.52
2018-07-10T05:28:20.926Z,18.15
2018-07-10T05:29:29.784Z,18.33
2018-07-10T05:30:38.795Z,17.76
2018-07-10T05:31:48.211Z,17.76
2018-07-10T05:32:57.621Z,17.95
2018-07-10T05:34:06.480Z,17.95
2018-07-10T05:35:15.341Z,18.24
2018-07-10T05:36:24.837Z,17.95
2018-07-10T05:37:33.972Z,18.24
2018-07-10T05:38:42.836Z,17.95
2018-07-10T05:39:51.696Z,18.24
2018-07-10T05:41:00.555Z,18.05
2018-07-10T05:42:09.802Z,17.76
2018-07-10T05:43:18.937Z,17.86
2018-07-10T05:44:27.797Z,17.19
2018-07-10T05:45:36.653Z,16.81
2018-07-10T05:46:45.787Z,17
2018-07-10T05:47:54.646Z,17.29
2018-07-10T05:49:03.506Z,17.29
2018-07-10T05:50:12.365Z,16.81
2018-07-10T05:51:21.223Z,16.33
2018-07-10T05:52:30.087Z,16.61
2018-07-10T05:53:39.096Z,16.14
2018-07-10T05:54:47.955Z,15.66
2018-07-10T05:55:56.813Z,15.09
2018-07-10T05:57:05.672Z,14.61
2018-07-10T05:58:14.529Z,14.23
2018-07-10T05:59:23.490Z,12.99
2018-07-10T06:00:32.343Z,12.6
2018-07-10T06:01:41.754Z,12.6
2018-07-10T06:02:50.613Z,13.08
2018-07-10T06:03:59.469Z,13.56
2018-07-10T06:05:08.961Z,13.18
2018-07-10T06:06:17.818Z,12.51
2018-07-10T06:07:26.677Z,11.84
2018-07-10T06:08:35.824Z,11.84
2018-07-10T06:09:44.680Z,12.32
2018-07-10T06:10:53.542Z,12.13
2018-07-10T06:12:02.676Z,11.65
2018-07-10T06:13:11.534Z,11.46
2018-07-10T06:14:20.392Z,11.46
2018-07-10T06:15:29.256Z,11.74
2018-07-10T06:16:38.115Z,11.74
2018-07-10T06:17:46.974Z,12.23
2018-07-10T06:18:56.406Z,12.6
2018-07-10T06:20:05.255Z,11.84
2018-07-10T06:21:14.116Z,11.36
2018-07-10T06:22:23.578Z,11.36
2018-07-10T06:23:32.379Z,11.17
2018-07-10T06:24:41.237Z,11.27
2018-07-10T06:25:50.372Z,10.22
2018-07-10T06:26:59.231Z,10.31
2018-07-10T06:28:08.392Z,11.36
2018-07-10T06:29:17.549Z,12.6
2018-07-10T06:30:26.497Z,12.04
2018-07-10T06:31:35.272Z,11.55
2018-07-10T06:32:44.133Z,11.46
2018-07-10T06:33:52.993Z,10.79
2018-07-10T06:35:02.130Z,11.27
2018-07-10T06:36:10.988Z,11.46
2018-07-10T06:37:19.849Z,11.27
2018-07-10T06:38:28.708Z,11.37
2018-07-10T06:39:37.709Z,10.7
2018-07-10T06:40:46.529Z,10.03
2018-07-10T06:41:55.392Z,10.99
2018-07-10T06:43:04.534Z,12.71
2018-07-10T06:44:13.671Z,12.61
2018-07-10T06:45:22.679Z,12.51
2018-07-10T06:46:31.542Z,11.94
2018-07-10T06:47:40.403Z,12.23
2018-07-10T06:48:49.633Z,12.51
2018-07-10T06:49:58.675Z,11.56
2018-07-10T06:51:07.534Z,11.56
2018-07-10T06:52:16.717Z,11.75
2018-07-10T06:53:26.625Z,11.27
2018-07-10T06:54:35.891Z,10.7
2018-07-10T06:55:45.029Z,9.45
2018-07-10T06:56:53.887Z,10.13
2018-07-10T06:58:02.745Z,10.23
2018-07-10T06:59:11.605Z,11.37
2018-07-10T07:00:20.464Z,12.42
2018-07-10T07:01:29.599Z,12.9
2018-07-10T07:02:38.459Z,12.32
2018-07-10T07:03:47.878Z,12.04
2018-07-10T07:04:56.838Z,12.13
2018-07-10T07:06:05.705Z,11.56
2018-07-10T07:07:14.844Z,11.18
2018-07-10T07:08:24.133Z,10.7
2018-07-10T07:09:32.994Z,11.18
2018-07-10T07:10:42.180Z,11.27
2018-07-10T07:11:50.993Z,10.7
2018-07-10T07:12:59.853Z,10.31
2018-07-10T07:14:08.996Z,10.99
2018-07-10T07:15:18.135Z,11.27
2018-07-10T07:16:27.007Z,11.28
2018-07-10T07:17:35.863Z,11.57
2018-07-10T07:18:45.024Z,11.37
2018-07-10T07:19:54.262Z,11.09
2018-07-10T07:21:03.403Z,11.56
2018-07-10T07:22:12.265Z,11.28
2018-07-10T07:23:21.120Z,11.28
2018-07-10T07:24:30.543Z,11.76
2018-07-10T07:25:39.402Z,11.95
2018-07-10T07:26:48.262Z,11.47
2018-07-10T07:27:57.122Z,11.46
2018-07-10T07:29:06.256Z,11.38
2018-07-10T07:30:15.114Z,11.18
2018-07-10T07:31:24.125Z,10.99
2018-07-10T07:32:32.987Z,10.8
2018-07-10T07:33:41.844Z,10.42
2018-07-10T07:34:50.713Z,11.18
2018-07-10T07:35:59.860Z,11.57
2018-07-10T07:37:09.071Z,11.28
2018-07-10T07:38:17.933Z,12.52
2018-07-10T07:39:26.794Z,12.62
2018-07-10T07:40:35.655Z,12.62
2018-07-10T07:41:44.519Z,12.62
2018-07-10T07:42:53.379Z,12.14
2018-07-10T07:44:02.561Z,12.9
2018-07-10T07:45:11.376Z,11.85
2018-07-10T07:46:20.238Z,11.76
2018-07-10T07:47:29.100Z,11.57
2018-07-10T07:48:37.957Z,11.66
2018-07-10T07:49:46.820Z,12.33
2018-07-10T07:50:55.678Z,11.95
2018-07-10T07:52:04.539Z,12.33
2018-07-10T07:53:13.400Z,12.24
2018-07-10T07:54:22.358Z,12.71
2018-07-10T07:55:31.217Z,12.9
2018-07-10T07:56:40.355Z,14.43
2018-07-10T07:57:49.414Z,13.67
2018-07-10T07:58:58.554Z,14.43
2018-07-10T08:00:07.567Z,14.05
2018-07-10T08:01:16.424Z,14.53
2018-07-10T08:02:25.284Z,12.9
2018-07-10T08:03:34.144Z,14.34
2018-07-10T08:04:43.005Z,14.72
2018-07-10T08:05:52.218Z,13.19
2018-07-10T08:07:01.080Z,14.34
2018-07-10T08:08:09.941Z,13.67
2018-07-10T08:09:19.088Z,12.62
2018-07-10T08:10:27.950Z,13.01
2018-07-10T08:11:37.084Z,12.43
2018-07-10T08:12:46.221Z,11.95
2018-07-10T08:13:55.080Z,10.89
2018-07-10T08:15:03.942Z,10.71
2018-07-10T08:16:13.355Z,10.32
2018-07-10T08:17:22.214Z,10.13
2018-07-10T08:18:31.076Z,9.28
2018-07-10T08:19:39.935Z,9.46
2018-07-10T08:20:48.795Z,9.08
2018-07-10T08:21:57.981Z,8.89
2018-07-10T08:23:06.796Z,8.61
2018-07-10T08:24:15.930Z,7.93
2018-07-10T08:25:25.375Z,7.36
2018-07-10T08:26:34.234Z,6.88
2018-07-10T08:27:43.094Z,5.93
2018-07-10T08:28:52.377Z,5.44
2018-07-10T08:30:01.239Z,5.07
2018-07-10T08:31:10.101Z,5.26
2018-07-10T08:32:18.960Z,4.68
2018-07-10T08:33:27.956Z,4.58
2018-07-10T08:34:37.276Z,4.39
2018-07-10T08:35:46.138Z,4.01
2018-07-10T08:36:55.276Z,3.82
2018-07-10T08:38:04.134Z,3.63
2018-07-10T08:39:12.996Z,3.34
2018-07-10T08:40:22.130Z,3.34
2018-07-10T08:41:31.269Z,3.06
2018-07-10T08:42:40.132Z,2.67
2018-07-10T08:43:48.994Z,2.87
2018-07-10T08:44:57.855Z,2.48
2018-07-10T08:46:07.002Z,2.2
2018-07-10T08:47:15.860Z,1.72
2018-07-10T08:48:24.723Z,1.62
2018-07-10T08:49:33.582Z,1.43
2018-07-10T08:50:42.445Z,1.34
2018-07-10T08:51:51.302Z,1.05
2018-07-10T08:53:00.166Z,0.09
2018-07-10T08:54:09.576Z,0
2018-07-10T08:55:18.435Z,0
2018-07-10T08:56:27.298Z,0
2018-07-10T08:57:36.437Z,0
2018-07-10T08:58:45.304Z,0
2018-07-10T08:59:54.453Z,0
2018-07-10T09:01:03.579Z,0
2018-07-10T09:02:12.719Z,0
2018-07-10T09:03:21.580Z,0
2018-07-10T09:04:30.440Z,0
2018-07-10T09:05:39.308Z,0
2018-07-10T09:06:48.168Z,0
2018-07-10T09:07:57.048Z,0
2018-07-10T09:09:05.890Z,0
2018-07-10T09:10:14.747Z,0
2018-07-10T09:11:23.618Z,0
2018-07-10T09:12:32.465Z,0
2018-07-10T09:13:41.604Z,0
2018-07-10T09:14:50.512Z,0
2018-07-10T09:15:59.375Z,0
2018-07-10T09:17:08.236Z,0
2018-07-10T09:18:17.138Z,0
2018-07-10T09:19:25.956Z,0
2018-07-10T09:20:35.442Z,0
2018-07-10T09:21:44.302Z,0
2018-07-10T09:22:53.162Z,0
2018-07-10T09:24:02.300Z,0
2018-07-10T09:25:11.158Z,0
2018-07-10T09:26:20.169Z,0
2018-07-10T09:27:29.028Z,0
2018-07-10T09:28:37.888Z,0
2018-07-10T09:29:46.747Z,0
2018-07-10T09:30:55.611Z,0
2018-07-10T09:32:04.750Z,0
2018-07-10T09:33:13.610Z,0
2018-07-10T09:34:22.472Z,0
2018-07-10T09:35:31.614Z,0
2018-07-10T09:36:40.477Z,0
2018-07-10T09:37:49.337Z,0
2018-07-10T09:38:58.199Z,0
2018-07-10T09:40:07.337Z,0
2018-07-10T09:41:16.200Z,0
2018-07-10T09:42:25.064Z,0
2018-07-10T09:43:34.275Z,0
2018-07-10T09:44:43.142Z,0
2018-07-10T09:45:52.006Z,0
2018-07-10T09:47:00.882Z,0
2018-07-10T09:48:10.451Z,0
2018-07-10T09:49:19.463Z,0
2018-07-10T09:50:28.322Z,0
2018-07-10T09:51:37.184Z,0
2018-07-10T09:52:46.044Z,0
2018-07-10T09:53:54.907Z,0
2018-07-10T09:55:03.833Z,0
2018-07-10T09:56:12.651Z,0
2018-07-10T09:57:21.492Z,0
2018-07-10T09:58:30.358Z,0
2018-07-10T09:59:39.216Z,0
2018-07-10T10:00:48.178Z,0
2018-07-10T10:01:57.103Z,0
2018-07-10T10:03:06.610Z,0
2018-07-10T10:04:15.471Z,0
2018-07-10T10:05:24.337Z,0
2018-07-10T10:06:33.363Z,0
2018-07-10T10:07:42.496Z,0
2018-07-10T10:08:51.359Z,0
2018-07-10T10:10:00.502Z,0
2018-07-10T10:11:09.365Z,0
2018-07-10T10:12:18.512Z,0
2018-07-10T10:13:27.374Z,0
2018-07-10T10:14:36.238Z,0
2018-07-10T10:15:45.377Z,0
2018-07-10T10:16:54.237Z,0
2018-07-10T10:18:03.379Z,0
2018-07-10T10:19:12.243Z,0
2018-07-10T10:20:21.105Z,0
2018-07-10T10:21:29.972Z,0
2018-07-10T10:22:39.396Z,0
2018-07-10T10:23:48.811Z,0
2018-07-10T10:24:57.671Z,0
2018-07-10T10:26:07.089Z,0
2018-07-10T10:27:15.950Z,0
2018-07-10T10:28:24.815Z,0
2018-07-10T10:29:33.826Z,0
2018-07-10T10:30:42.690Z,0
2018-07-10T10:31:51.550Z,0
2018-07-10T10:33:00.413Z,0
2018-07-10T10:34:09.275Z,0
2018-07-10T10:35:18.517Z,0
2018-07-10T10:36:27.382Z,0
2018-07-10T10:37:36.248Z,0
2018-07-10T10:38:45.109Z,0
2018-07-10T10:39:53.976Z,0
2018-07-10T10:41:02.989Z,0
2018-07-10T10:42:11.848Z,0
2018-07-10T10:43:20.716Z,3.35
2018-07-10T10:44:29.851Z,6.61
2018-07-10T10:45:38.714Z,8.05
2018-07-10T10:46:47.730Z,5.84
2018-07-10T10:47:56.602Z,4.5
2018-07-10T10:49:05.467Z,11.79
2018-07-10T10:50:14.606Z,11.4
2018-07-10T10:51:23.749Z,15.23
2018-07-10T10:52:32.614Z,12.46
2018-07-10T10:53:41.478Z,11.4
2018-07-10T10:54:50.712Z,7.47
2018-07-10T10:55:59.858Z,9.48
2018-07-10T10:57:08.819Z,9.49
2018-07-10T10:58:17.684Z,10.16
2018-07-10T10:59:26.825Z,18.12
2018-07-10T11:00:35.969Z,14.95
2018-07-10T11:01:44.832Z,17.35
2018-07-10T11:02:53.694Z,14.28
2018-07-10T11:04:02.708Z,17.74
2018-07-10T11:05:11.570Z,18.89
2018-07-10T11:06:20.432Z,17.74
2018-07-10T11:07:29.297Z,24.85
2018-07-10T11:08:38.159Z,24.94
2018-07-10T11:09:47.023Z,30.79
2018-07-10T11:10:55.884Z,19.28
2018-07-10T11:12:04.749Z,22.92
2018-07-10T11:13:13.617Z,18.8
2018-07-10T11:14:22.479Z,21.3
2018-07-10T11:15:31.535Z,36.26
2018-07-10T11:16:40.307Z,39.43
2018-07-10T11:17:49.172Z,35.3
2018-07-10T11:18:58.037Z,25.23
2018-07-10T11:20:07.173Z,41.63
2018-07-10T11:21:16.387Z,35.02
2018-07-10T11:22:25.536Z,48.83
2018-07-10T11:23:34.673Z,40.39
2018-07-10T11:24:43.535Z,40.39
2018-07-10T11:25:52.403Z,39.83
2018-07-10T11:27:01.266Z,33.88
2018-07-10T11:28:10.129Z,43.57
2018-07-10T11:29:19.274Z,59.12
2018-07-10T11:30:28.149Z,57.43
2018-07-10T11:31:37.003Z,47.82
2018-07-10T11:32:46.021Z,41.49
2018-07-10T11:33:54.886Z,41.29
2018-07-10T11:35:04.033Z,61.08
2018-07-10T11:36:12.895Z,66.16
2018-07-10T11:37:21.763Z,68.47
2018-07-10T11:38:31.531Z,71.25
2018-07-10T11:39:40.671Z,66.49
2018-07-10T11:40:49.534Z,71.29
2018-07-10T11:41:58.397Z,65.49
2018-07-10T11:43:07.548Z,72.02
2018-07-10T11:44:16.842Z,44.56
2018-07-10T11:45:25.983Z,64.15
2018-07-10T11:46:34.856Z,68.66
2018-07-10T11:47:43.730Z,70.01
2018-07-10T11:48:52.592Z,65.88
2018-07-10T11:50:01.558Z,71.06
2018-07-10T11:51:10.426Z,69.66
2018-07-10T11:52:19.564Z,68.21
2018-07-10T11:53:28.429Z,88.87
2018-07-10T11:54:37.292Z,85.03
2018-07-10T11:55:46.309Z,80.61
2018-07-10T11:56:55.450Z,88.39
2018-07-10T11:58:04.315Z,87.15
2018-07-10T11:59:13.740Z,85.07
2018-07-10T12:00:22.609Z,90.51
2018-07-10T12:01:31.472Z,84.45
2018-07-10T12:02:40.335Z,80.9
2018-07-10T12:03:49.252Z,83.3
2018-07-10T12:04:58.730Z,85.75
2018-07-10T12:06:07.540Z,84.78
2018-07-10T12:07:16.406Z,85.36
2018-07-10T12:08:25.273Z,89.3
2018-07-10T12:09:34.140Z,86.71
2018-07-10T12:10:43.009Z,87.86
2018-07-10T12:11:51.873Z,87.19
2018-07-10T12:13:01.093Z,87.57
2018-07-10T12:14:09.958Z,89.35
2018-07-10T12:15:19.101Z,89.15
2018-07-10T12:16:28.245Z,81.84
2018-07-10T12:17:37.392Z,77.71
2018-07-10T12:18:46.558Z,89.73
2018-07-10T12:19:55.425Z,87.71
2018-07-10T12:21:04.291Z,94.2
2018-07-10T12:22:13.434Z,87.08
2018-07-10T12:23:22.309Z,86.27
2018-07-10T12:24:31.172Z,88.71
2018-07-10T12:25:40.318Z,84.87
2018-07-10T12:26:49.184Z,90.93
2018-07-10T12:27:58.068Z,80.83
2018-07-10T12:29:07.243Z,89.24
2018-07-10T12:30:16.112Z,90.45
2018-07-10T12:31:24.981Z,89.82
2018-07-10T12:32:33.852Z,89.72
2018-07-10T12:33:42.722Z,90.54
2018-07-10T12:34:51.894Z,90.44
2018-07-10T12:36:00.745Z,90.01
2018-07-10T12:37:09.615Z,89.82
2018-07-10T12:38:18.482Z,89.2
2018-07-10T12:39:27.356Z,90.93
2018-07-10T12:40:36.220Z,90.64
2018-07-10T12:41:45.410Z,92.28
2018-07-10T12:42:55.030Z,89.35
2018-07-10T12:44:03.897Z,84.63
2018-07-10T12:45:12.766Z,89.2
2018-07-10T12:46:21.638Z,89.1
2018-07-10T12:47:30.508Z,91.13
2018-07-10T12:48:39.375Z,89.78
2018-07-10T12:49:48.531Z,90.45
2018-07-10T12:50:57.952Z,89.78
2018-07-10T12:52:06.822Z,91.22
2018-07-10T12:53:15.791Z,90.59
2018-07-10T12:54:24.942Z,90.64
2018-07-10T12:55:33.812Z,89.97
2018-07-10T12:56:42.679Z,89.68
2018-07-10T12:57:51.547Z,89.63
2018-07-10T12:59:00.463Z,90.69
2018-07-10T13:00:09.616Z,90.2
2018-07-10T13:01:18.762Z,86.83
2018-07-10T13:02:27.630Z,90.3
2018-07-10T13:03:36.497Z,90.01
2018-07-10T13:04:45.637Z,90.35
2018-07-10T13:05:54.508Z,92.85
2018-07-10T13:07:03.375Z,88.24
2018-07-10T13:08:12.244Z,90.16
2018-07-10T13:09:21.109Z,90.45
2018-07-10T13:10:30.126Z,90.93
2018-07-10T13:11:38.994Z,88.43
2018-07-10T13:12:47.858Z,87.76
2018-07-10T13:13:57.011Z,86.16
2018-07-10T13:15:06.156Z,86.83
2018-07-10T13:16:15.024Z,85.91
2018-07-10T13:17:23.895Z,83.84
2018-07-10T13:18:32.765Z,82.49
2018-07-10T13:19:41.632Z,85.09
2018-07-10T13:20:50.782Z,84.76
2018-07-10T13:21:59.927Z,85.43
2018-07-10T13:23:09.075Z,82.54
2018-07-10T13:24:17.945Z,84
2018-07-10T13:25:26.812Z,86.51
2018-07-10T13:26:35.957Z,86.6
2018-07-10T13:27:44.974Z,89.39
2018-07-10T13:28:54.398Z,88.14
2018-07-10T13:30:03.544Z,85.35
2018-07-10T13:31:12.686Z,83.66
2018-07-10T13:32:21.554Z,83.12
2018-07-10T13:33:30.419Z,81.77
2018-07-10T13:34:39.572Z,81.48
2018-07-10T13:35:48.507Z,83.31
2018-07-10T13:36:58.092Z,81.58
2018-07-10T13:38:06.958Z,83.75
2018-07-10T13:39:15.829Z,81.25
2018-07-10T13:40:24.691Z,81.6
2018-07-10T13:41:33.558Z,82.46
2018-07-10T13:42:42.424Z,85.25
2018-07-10T13:43:51.578Z,85.16
2018-07-10T13:45:00.450Z,87.46
2018-07-10T13:46:09.590Z,85.54
2018-07-10T13:47:18.453Z,85.93
2018-07-10T13:48:27.320Z,87.37
2018-07-10T13:49:36.188Z,90.45
2018-07-10T13:50:45.435Z,86.51
2018-07-10T13:51:54.303Z,85.11
2018-07-10T13:53:03.171Z,83.91
2018-07-10T13:54:12.059Z,91.22
2018-07-10T13:55:21.202Z,88.91
2018-07-10T13:56:30.073Z,84.58
2018-07-10T13:57:39.500Z,88.81
2018-07-10T13:58:48.368Z,89.43
2018-07-10T13:59:57.236Z,86.31
2018-07-10T14:01:06.377Z,90.93
2018-07-10T14:02:15.669Z,89.39
2018-07-10T14:03:24.810Z,89.29
2018-07-10T14:04:33.680Z,91.27
2018-07-10T14:05:42.546Z,90.79
2018-07-10T14:06:51.412Z,91.27
2018-07-10T14:08:00.377Z,91.27
2018-07-10T14:09:09.245Z,89.78
2018-07-10T14:10:18.393Z,89.72
2018-07-10T14:11:27.261Z,86.69
2018-07-10T14:12:36.132Z,89
2018-07-10T14:13:45.003Z,87.84
2018-07-10T14:14:54.153Z,91.12
2018-07-10T14:16:03.592Z,88.32
2018-07-10T14:17:12.743Z,86.92
2018-07-10T14:18:21.886Z,85.42
2018-07-10T14:19:31.111Z,85.46
2018-07-10T14:20:39.988Z,83.19
2018-07-10T14:21:48.858Z,82.57
2018-07-10T14:22:57.730Z,84.17
2018-07-10T14:24:06.601Z,84.36
2018-07-10T14:25:15.471Z,85.52
2018-07-10T14:26:24.343Z,86.63
2018-07-10T14:27:33.764Z,85.13
2018-07-10T14:28:42.632Z,85.81
2018-07-10T14:29:51.790Z,85.71
2018-07-10T14:31:01.136Z,83.73
2018-07-10T14:32:10.008Z,82.61
2018-07-10T14:33:18.883Z,81.45
2018-07-10T14:34:28.032Z,82.86
2018-07-10T14:35:36.903Z,83.44
2018-07-10T14:36:45.773Z,83.59
2018-07-10T14:37:54.643Z,83.64
2018-07-10T14:39:03.515Z,84.56
2018-07-10T14:40:12.661Z,85.14
2018-07-10T14:41:21.812Z,85.05
2018-07-10T14:42:30.788Z,84.61
2018-07-10T14:43:39.690Z,84.03
2018-07-10T14:44:48.527Z,83.64
2018-07-10T14:45:57.678Z,85.43
2018-07-10T14:47:06.828Z,85.38
2018-07-10T14:48:15.696Z,85.38
2018-07-10T14:49:24.564Z,85.47
2018-07-10T14:50:33.436Z,83.84
2018-07-10T14:51:42.583Z,82.82
2018-07-10T14:52:51.453Z,81.95
2018-07-10T14:54:00.711Z,79.16
2018-07-10T14:55:10.138Z,78.42
2018-07-10T14:56:19.011Z,77.4
2018-07-10T14:57:27.882Z,77.34
2018-07-10T14:58:37.031Z,76.24
2018-07-10T14:59:46.003Z,75.99
2018-07-10T15:00:54.877Z,75.12
2018-07-10T15:02:03.753Z,74.93
2018-07-10T15:03:12.627Z,74.35
2018-07-10T15:04:21.501Z,74.73
2018-07-10T15:05:30.651Z,73.52
2018-07-10T15:06:40.079Z,72.45